sensor_id;sensor_type;location;lat;lon;timestamp;temperature;humidity
59025;DHT22;44806;48.008;13.666;2024-03-02T00:00:51;7.80;99.90
59025;DHT22;44806;48.008;13.666;2024-03-02T00:03:19;7.80;99.90
59025;DHT22;44806;48.008;13.666;2024-03-02T00:05:49;7.90;99.90
59025;DHT22;44806;48.008;13.666;2024-03-02T00:08:22;7.90;99.90
59025;DHT22;44806;48.008;13.666;2024-03-02T00:10:49;7.90;99.90
59025;DHT22;44806;48.008;13.666;2024-03-02T00:13:22;7.90;99.90
59025;DHT22;44806;48.008;13.666;2024-03-02T00:15:52;7.90;99.90
59025;DHT22;44806;48.008;13.666;2024-03-02T00:18:21;7.90;99.90
59025;DHT22;44806;48.008;13.666;2024-03-02T00:20:48;7.90;99.90
59025;DHT22;44806;48.008;13.666;2024-03-02T00:23:16;7.90;99.90
59025;DHT22;44806;48.008;13.666;2024-03-02T00:25:47;7.90;99.90
59025;DHT22;44806;48.008;13.666;2024-03-02T00:28:19;7.70;99.90
59025;DHT22;44806;48.008;13.666;2024-03-02T00:30:57;7.90;99.90
59025;DHT22;44806;48.008;13.666;2024-03-02T00:33:27;7.90;99.90
59025;DHT22;44806;48.008;13.666;2024-03-02T00:35:55;8.00;99.90
59025;DHT22;44806;48.008;13.666;2024-03-02T00:38:23;7.90;99.90
59025;DHT22;44806;48.008;13.666;2024-03-02T00:40:50;7.90;99.90
59025;DHT22;44806;48.008;13.666;2024-03-02T00:43:42;7.90;99.90
59025;DHT22;44806;48.008;13.666;2024-03-02T00:46:11;7.90;99.90
59025;DHT22;44806;48.008;13.666;2024-03-02T00:48:39;7.70;99.90
59025;DHT22;44806;48.008;13.666;2024-03-02T00:51:11;7.80;99.90
59025;DHT22;44806;48.008;13.666;2024-03-02T00:53:38;7.80;99.90
59025;DHT22;44806;48.008;13.666;2024-03-02T00:56:09;7.80;99.90
59025;DHT22;44806;48.008;13.666;2024-03-02T00:58:37;7.70;99.90
59025;DHT22;44806;48.008;13.666;2024-03-02T01:01:04;7.70;99.90
59025;DHT22;44806;48.008;13.666;2024-03-02T01:03:33;7.60;99.90
59025;DHT22;44806;48.008;13.666;2024-03-02T01:06:00;7.70;99.90
59025;DHT22;44806;48.008;13.666;2024-03-02T01:08:26;7.70;99.90
59025;DHT22;44806;48.008;13.666;2024-03-02T01:10:54;7.60;99.90
59025;DHT22;44806;48.008;13.666;2024-03-02T01:13:21;7.60;99.90
59025;DHT22;44806;48.008;13.666;2024-03-02T01:15:49;7.40;99.90
59025;DHT22;44806;48.008;13.666;2024-03-02T01:18:16;7.40;99.90
59025;DHT22;44806;48.008;13.666;2024-03-02T01:20:44;7.40;99.90
59025;DHT22;44806;48.008;13.666;2024-03-02T01:23:11;7.50;99.90
59025;DHT22;44806;48.008;13.666;2024-03-02T01:25:38;7.40;99.90
59025;DHT22;44806;48.008;13.666;2024-03-02T01:28:05;7.30;99.90
59025;DHT22;44806;48.008;13.666;2024-03-02T01:30:32;7.40;99.90
59025;DHT22;44806;48.008;13.666;2024-03-02T01:33:00;7.40;99.90
59025;DHT22;44806;48.008;13.666;2024-03-02T01:35:28;7.50;99.90
59025;DHT22;44806;48.008;13.666;2024-03-02T01:37:56;7.40;99.90
59025;DHT22;44806;48.008;13.666;2024-03-02T01:40:23;7.40;99.90
59025;DHT22;44806;48.008;13.666;2024-03-02T01:42:52;7.50;99.90
59025;DHT22;44806;48.008;13.666;2024-03-02T01:45:19;7.50;99.90
59025;DHT22;44806;48.008;13.666;2024-03-02T01:47:47;7.50;99.90
59025;DHT22;44806;48.008;13.666;2024-03-02T01:50:14;7.50;99.90
59025;DHT22;44806;48.008;13.666;2024-03-02T01:52:41;7.50;99.90
59025;DHT22;44806;48.008;13.666;2024-03-02T01:55:11;7.50;99.90
59025;DHT22;44806;48.008;13.666;2024-03-02T01:57:38;7.40;99.90
59025;DHT22;44806;48.008;13.666;2024-03-02T02:00:06;7.40;99.90
59025;DHT22;44806;48.008;13.666;2024-03-02T02:02:35;7.40;99.90
59025;DHT22;44806;48.008;13.666;2024-03-02T02:05:02;7.50;99.90
59025;DHT22;44806;48.008;13.666;2024-03-02T02:07:29;7.50;99.90
59025;DHT22;44806;48.008;13.666;2024-03-02T02:09:57;7.50;99.90
59025;DHT22;44806;48.008;13.666;2024-03-02T02:12:25;7.40;99.90
59025;DHT22;44806;48.008;13.666;2024-03-02T02:14:53;7.30;99.90
59025;DHT22;44806;48.008;13.666;2024-03-02T02:17:20;7.40;99.90
59025;DHT22;44806;48.008;13.666;2024-03-02T02:19:46;7.40;99.90
59025;DHT22;44806;48.008;13.666;2024-03-02T02:22:15;7.40;99.90
59025;DHT22;44806;48.008;13.666;2024-03-02T02:24:42;7.30;99.90
59025;DHT22;44806;48.008;13.666;2024-03-02T02:27:09;7.40;99.90
59025;DHT22;44806;48.008;13.666;2024-03-02T02:29:36;7.40;99.90
59025;DHT22;44806;48.008;13.666;2024-03-02T02:32:04;7.40;99.90
59025;DHT22;44806;48.008;13.666;2024-03-02T02:34:31;7.50;99.90
59025;DHT22;44806;48.008;13.666;2024-03-02T02:36:58;7.40;99.90
59025;DHT22;44806;48.008;13.666;2024-03-02T02:39:26;7.50;99.90
59025;DHT22;44806;48.008;13.666;2024-03-02T02:41:53;7.40;99.90
59025;DHT22;44806;48.008;13.666;2024-03-02T02:44:20;7.50;99.90
59025;DHT22;44806;48.008;13.666;2024-03-02T02:46:47;7.50;99.90
59025;DHT22;44806;48.008;13.666;2024-03-02T02:49:14;7.40;99.90
59025;DHT22;44806;48.008;13.666;2024-03-02T02:51:44;7.50;99.90
59025;DHT22;44806;48.008;13.666;2024-03-02T02:54:11;7.40;99.90
59025;DHT22;44806;48.008;13.666;2024-03-02T02:56:40;7.40;99.90
59025;DHT22;44806;48.008;13.666;2024-03-02T02:59:07;7.40;99.90
59025;DHT22;44806;48.008;13.666;2024-03-02T03:01:34;7.30;99.90
59025;DHT22;44806;48.008;13.666;2024-03-02T03:04:01;7.30;99.90
59025;DHT22;44806;48.008;13.666;2024-03-02T03:06:28;7.30;99.90
59025;DHT22;44806;48.008;13.666;2024-03-02T03:08:55;7.30;99.90
59025;DHT22;44806;48.008;13.666;2024-03-02T03:11:22;7.30;99.90
59025;DHT22;44806;48.008;13.666;2024-03-02T03:13:52;7.20;99.90
59025;DHT22;44806;48.008;13.666;2024-03-02T03:16:20;7.20;99.90
59025;DHT22;44806;48.008;13.666;2024-03-02T03:18:47;7.30;99.90
59025;DHT22;44806;48.008;13.666;2024-03-02T03:21:15;7.30;99.90
59025;DHT22;44806;48.008;13.666;2024-03-02T03:23:42;7.30;99.90
59025;DHT22;44806;48.008;13.666;2024-03-02T03:26:09;7.40;99.90
59025;DHT22;44806;48.008;13.666;2024-03-02T03:28:36;7.30;99.90
59025;DHT22;44806;48.008;13.666;2024-03-02T03:31:05;7.30;99.90
59025;DHT22;44806;48.008;13.666;2024-03-02T03:33:33;7.30;99.90
59025;DHT22;44806;48.008;13.666;2024-03-02T03:36:00;7.30;99.90
59025;DHT22;44806;48.008;13.666;2024-03-02T03:38:29;7.30;99.90
59025;DHT22;44806;48.008;13.666;2024-03-02T03:40:56;7.40;99.90
59025;DHT22;44806;48.008;13.666;2024-03-02T03:43:22;7.40;99.90
59025;DHT22;44806;48.008;13.666;2024-03-02T03:45:49;7.40;99.90
59025;DHT22;44806;48.008;13.666;2024-03-02T03:48:18;7.40;99.90
59025;DHT22;44806;48.008;13.666;2024-03-02T03:50:45;7.40;99.90
59025;DHT22;44806;48.008;13.666;2024-03-02T03:53:12;7.30;99.90
59025;DHT22;44806;48.008;13.666;2024-03-02T03:55:40;7.20;99.90
59025;DHT22;44806;48.008;13.666;2024-03-02T03:58:07;7.30;99.90
59025;DHT22;44806;48.008;13.666;2024-03-02T04:00:34;7.40;99.90
59025;DHT22;44806;48.008;13.666;2024-03-02T04:03:01;7.40;99.90
59025;DHT22;44806;48.008;13.666;2024-03-02T04:05:30;7.40;99.90
59025;DHT22;44806;48.008;13.666;2024-03-02T04:07:57;7.30;99.90
59025;DHT22;44806;48.008;13.666;2024-03-02T04:10:25;7.30;99.90
59025;DHT22;44806;48.008;13.666;2024-03-02T04:12:52;7.30;99.90
59025;DHT22;44806;48.008;13.666;2024-03-02T04:15:19;7.30;99.90
59025;DHT22;44806;48.008;13.666;2024-03-02T04:17:48;7.40;99.90
59025;DHT22;44806;48.008;13.666;2024-03-02T04:20:15;7.40;99.90
59025;DHT22;44806;48.008;13.666;2024-03-02T04:22:44;7.40;99.90
59025;DHT22;44806;48.008;13.666;2024-03-02T04:25:11;7.30;99.90
59025;DHT22;44806;48.008;13.666;2024-03-02T04:27:38;7.30;99.90
59025;DHT22;44806;48.008;13.666;2024-03-02T04:30:06;7.30;99.90
59025;DHT22;44806;48.008;13.666;2024-03-02T04:32:33;7.30;99.90
59025;DHT22;44806;48.008;13.666;2024-03-02T04:35:01;7.30;99.90
59025;DHT22;44806;48.008;13.666;2024-03-02T04:37:29;7.30;99.90
59025;DHT22;44806;48.008;13.666;2024-03-02T04:39:58;7.30;99.90
59025;DHT22;44806;48.008;13.666;2024-03-02T04:42:25;7.40;99.90
59025;DHT22;44806;48.008;13.666;2024-03-02T04:44:52;7.30;99.90
59025;DHT22;44806;48.008;13.666;2024-03-02T04:47:19;7.30;99.90
59025;DHT22;44806;48.008;13.666;2024-03-02T04:49:46;7.40;99.90
59025;DHT22;44806;48.008;13.666;2024-03-02T04:52:13;7.40;99.90
59025;DHT22;44806;48.008;13.666;2024-03-02T04:54:39;7.40;99.90
59025;DHT22;44806;48.008;13.666;2024-03-02T04:57:22;7.40;99.90
59025;DHT22;44806;48.008;13.666;2024-03-02T04:59:49;7.40;99.90
59025;DHT22;44806;48.008;13.666;2024-03-02T05:02:16;7.30;99.90
59025;DHT22;44806;48.008;13.666;2024-03-02T05:04:43;7.40;99.90
59025;DHT22;44806;48.008;13.666;2024-03-02T05:07:10;7.30;99.90
59025;DHT22;44806;48.008;13.666;2024-03-02T05:09:37;7.40;99.90
59025;DHT22;44806;48.008;13.666;2024-03-02T05:12:04;7.30;99.90
59025;DHT22;44806;48.008;13.666;2024-03-02T05:14:45;7.40;99.90
59025;DHT22;44806;48.008;13.666;2024-03-02T05:17:12;7.30;99.90
59025;DHT22;44806;48.008;13.666;2024-03-02T05:19:39;7.20;99.90
59025;DHT22;44806;48.008;13.666;2024-03-02T05:22:06;7.30;99.90
59025;DHT22;44806;48.008;13.666;2024-03-02T05:24:33;7.40;99.90
59025;DHT22;44806;48.008;13.666;2024-03-02T05:27:00;7.30;99.90
59025;DHT22;44806;48.008;13.666;2024-03-02T05:29:27;7.30;99.90
59025;DHT22;44806;48.008;13.666;2024-03-02T05:31:55;7.30;99.90
59025;DHT22;44806;48.008;13.666;2024-03-02T05:34:23;7.20;99.90
59025;DHT22;44806;48.008;13.666;2024-03-02T05:36:49;7.30;99.90
59025;DHT22;44806;48.008;13.666;2024-03-02T05:39:16;7.20;99.90
59025;DHT22;44806;48.008;13.666;2024-03-02T05:41:43;7.30;99.90
59025;DHT22;44806;48.008;13.666;2024-03-02T05:44:10;7.20;99.90
59025;DHT22;44806;48.008;13.666;2024-03-02T05:46:38;7.20;99.90
59025;DHT22;44806;48.008;13.666;2024-03-02T05:49:06;7.20;99.90
59025;DHT22;44806;48.008;13.666;2024-03-02T05:51:35;7.20;99.90
59025;DHT22;44806;48.008;13.666;2024-03-02T05:54:02;7.20;99.90
59025;DHT22;44806;48.008;13.666;2024-03-02T05:56:29;7.20;99.90
59025;DHT22;44806;48.008;13.666;2024-03-02T05:58:56;7.10;99.90
59025;DHT22;44806;48.008;13.666;2024-03-02T06:01:34;7.10;99.90
59025;DHT22;44806;48.008;13.666;2024-03-02T06:04:01;7.10;99.90
59025;DHT22;44806;48.008;13.666;2024-03-02T06:06:29;7.10;99.90
59025;DHT22;44806;48.008;13.666;2024-03-02T06:08:58;7.10;99.90
59025;DHT22;44806;48.008;13.666;2024-03-02T06:11:25;7.10;99.90
59025;DHT22;44806;48.008;13.666;2024-03-02T06:13:52;7.20;99.90
59025;DHT22;44806;48.008;13.666;2024-03-02T06:16:19;7.20;99.90
59025;DHT22;44806;48.008;13.666;2024-03-02T06:18:46;7.20;99.90
59025;DHT22;44806;48.008;13.666;2024-03-02T06:21:13;7.20;99.90
59025;DHT22;44806;48.008;13.666;2024-03-02T06:23:41;7.10;99.90
59025;DHT22;44806;48.008;13.666;2024-03-02T06:26:08;7.20;99.90
59025;DHT22;44806;48.008;13.666;2024-03-02T06:28:35;7.20;99.90
59025;DHT22;44806;48.008;13.666;2024-03-02T06:31:03;7.20;99.90
59025;DHT22;44806;48.008;13.666;2024-03-02T06:33:30;7.20;99.90
59025;DHT22;44806;48.008;13.666;2024-03-02T06:35:56;7.20;99.90
59025;DHT22;44806;48.008;13.666;2024-03-02T06:38:23;7.20;99.90
59025;DHT22;44806;48.008;13.666;2024-03-02T06:40:53;7.20;99.90
59025;DHT22;44806;48.008;13.666;2024-03-02T06:43:20;7.20;99.90
59025;DHT22;44806;48.008;13.666;2024-03-02T06:45:49;7.20;99.90
59025;DHT22;44806;48.008;13.666;2024-03-02T06:48:16;7.30;99.90
59025;DHT22;44806;48.008;13.666;2024-03-02T06:50:45;7.30;99.90
59025;DHT22;44806;48.008;13.666;2024-03-02T06:53:13;7.30;99.90
59025;DHT22;44806;48.008;13.666;2024-03-02T06:55:43;7.30;99.90
59025;DHT22;44806;48.008;13.666;2024-03-02T06:58:12;7.30;99.90
59025;DHT22;44806;48.008;13.666;2024-03-02T07:00:41;7.30;99.90
59025;DHT22;44806;48.008;13.666;2024-03-02T07:03:08;7.30;99.90
59025;DHT22;44806;48.008;13.666;2024-03-02T07:05:35;7.40;99.90
59025;DHT22;44806;48.008;13.666;2024-03-02T07:08:02;7.30;99.90
59025;DHT22;44806;48.008;13.666;2024-03-02T07:10:30;7.40;99.90
59025;DHT22;44806;48.008;13.666;2024-03-02T07:12:57;7.40;99.90
59025;DHT22;44806;48.008;13.666;2024-03-02T07:15:26;7.50;99.90
59025;DHT22;44806;48.008;13.666;2024-03-02T07:18:15;7.60;99.90
59025;DHT22;44806;48.008;13.666;2024-03-02T07:20:42;7.60;99.90
59025;DHT22;44806;48.008;13.666;2024-03-02T07:23:09;7.60;99.90
59025;DHT22;44806;48.008;13.666;2024-03-02T07:25:36;7.60;99.90
59025;DHT22;44806;48.008;13.666;2024-03-02T07:28:05;7.70;99.90
59025;DHT22;44806;48.008;13.666;2024-03-02T07:30:34;7.70;99.90
59025;DHT22;44806;48.008;13.666;2024-03-02T07:33:01;7.70;99.90
59025;DHT22;44806;48.008;13.666;2024-03-02T07:35:28;7.70;99.90
59025;DHT22;44806;48.008;13.666;2024-03-02T07:37:57;7.70;99.90
59025;DHT22;44806;48.008;13.666;2024-03-02T07:40:24;7.60;99.90
59025;DHT22;44806;48.008;13.666;2024-03-02T07:42:51;7.70;99.90
59025;DHT22;44806;48.008;13.666;2024-03-02T07:45:18;7.80;99.90
59025;DHT22;44806;48.008;13.666;2024-03-02T07:47:47;7.80;99.90
59025;DHT22;44806;48.008;13.666;2024-03-02T07:50:15;7.90;99.90
59025;DHT22;44806;48.008;13.666;2024-03-02T07:52:42;8.00;99.90
59025;DHT22;44806;48.008;13.666;2024-03-02T07:55:09;8.00;99.90
59025;DHT22;44806;48.008;13.666;2024-03-02T07:57:36;8.10;99.90
59025;DHT22;44806;48.008;13.666;2024-03-02T08:00:08;8.10;99.90
59025;DHT22;44806;48.008;13.666;2024-03-02T08:02:35;8.10;99.90
59025;DHT22;44806;48.008;13.666;2024-03-02T08:05:04;8.10;99.90
59025;DHT22;44806;48.008;13.666;2024-03-02T08:07:31;8.10;99.90
59025;DHT22;44806;48.008;13.666;2024-03-02T08:09:58;8.10;99.90
59025;DHT22;44806;48.008;13.666;2024-03-02T08:12:25;8.10;99.90
59025;DHT22;44806;48.008;13.666;2024-03-02T08:14:52;8.20;99.90
59025;DHT22;44806;48.008;13.666;2024-03-02T08:17:19;8.20;99.90
59025;DHT22;44806;48.008;13.666;2024-03-02T08:19:46;8.10;99.90
59025;DHT22;44806;48.008;13.666;2024-03-02T08:22:15;8.00;99.90
59025;DHT22;44806;48.008;13.666;2024-03-02T08:24:42;7.90;99.90
59025;DHT22;44806;48.008;13.666;2024-03-02T08:27:09;8.00;99.90
59025;DHT22;44806;48.008;13.666;2024-03-02T08:29:37;8.10;99.90
59025;DHT22;44806;48.008;13.666;2024-03-02T08:32:05;8.20;99.90
59025;DHT22;44806;48.008;13.666;2024-03-02T08:34:32;8.20;99.90
59025;DHT22;44806;48.008;13.666;2024-03-02T08:37:01;8.30;99.90
59025;DHT22;44806;48.008;13.666;2024-03-02T08:39:29;8.30;99.90
59025;DHT22;44806;48.008;13.666;2024-03-02T08:41:57;8.30;99.90
59025;DHT22;44806;48.008;13.666;2024-03-02T08:44:24;8.40;99.90
59025;DHT22;44806;48.008;13.666;2024-03-02T08:46:51;8.50;99.90
59025;DHT22;44806;48.008;13.666;2024-03-02T08:49:18;8.50;99.90
59025;DHT22;44806;48.008;13.666;2024-03-02T08:51:45;8.60;99.90
59025;DHT22;44806;48.008;13.666;2024-03-02T08:54:20;8.60;99.90
59025;DHT22;44806;48.008;13.666;2024-03-02T08:56:48;8.70;99.90
59025;DHT22;44806;48.008;13.666;2024-03-02T08:59:15;8.70;99.90
59025;DHT22;44806;48.008;13.666;2024-03-02T09:01:43;8.80;99.90
59025;DHT22;44806;48.008;13.666;2024-03-02T09:04:10;9.00;99.90
59025;DHT22;44806;48.008;13.666;2024-03-02T09:06:37;8.90;99.90
59025;DHT22;44806;48.008;13.666;2024-03-02T09:09:04;9.00;99.90
59025;DHT22;44806;48.008;13.666;2024-03-02T09:11:32;9.10;99.90
59025;DHT22;44806;48.008;13.666;2024-03-02T09:14:01;9.10;99.90
59025;DHT22;44806;48.008;13.666;2024-03-02T09:16:28;9.10;99.90
59025;DHT22;44806;48.008;13.666;2024-03-02T09:18:56;9.20;99.90
59025;DHT22;44806;48.008;13.666;2024-03-02T09:21:23;9.20;99.90
59025;DHT22;44806;48.008;13.666;2024-03-02T09:23:51;9.30;99.90
59025;DHT22;44806;48.008;13.666;2024-03-02T09:26:18;9.40;99.90
59025;DHT22;44806;48.008;13.666;2024-03-02T09:28:46;9.40;99.90
59025;DHT22;44806;48.008;13.666;2024-03-02T09:31:16;9.40;99.90
59025;DHT22;44806;48.008;13.666;2024-03-02T09:33:43;9.40;99.90
59025;DHT22;44806;48.008;13.666;2024-03-02T09:36:17;9.50;99.90
59025;DHT22;44806;48.008;13.666;2024-03-02T09:38:45;9.60;99.90
59025;DHT22;44806;48.008;13.666;2024-03-02T09:41:12;9.70;99.90
59025;DHT22;44806;48.008;13.666;2024-03-02T09:43:39;9.80;99.90
59025;DHT22;44806;48.008;13.666;2024-03-02T09:46:07;9.80;99.90
59025;DHT22;44806;48.008;13.666;2024-03-02T09:48:37;9.80;99.90
59025;DHT22;44806;48.008;13.666;2024-03-02T09:51:05;9.90;99.90
59025;DHT22;44806;48.008;13.666;2024-03-02T09:53:33;10.00;99.90
59025;DHT22;44806;48.008;13.666;2024-03-02T09:56:00;10.00;99.90
59025;DHT22;44806;48.008;13.666;2024-03-02T09:58:27;10.10;99.90
59025;DHT22;44806;48.008;13.666;2024-03-02T10:00:55;10.10;99.90
59025;DHT22;44806;48.008;13.666;2024-03-02T10:03:23;10.10;99.90
59025;DHT22;44806;48.008;13.666;2024-03-02T10:05:52;10.10;99.90
59025;DHT22;44806;48.008;13.666;2024-03-02T10:08:19;10.20;99.90
59025;DHT22;44806;48.008;13.666;2024-03-02T10:10:46;10.10;99.90
59025;DHT22;44806;48.008;13.666;2024-03-02T10:13:14;10.10;99.90
59025;DHT22;44806;48.008;13.666;2024-03-02T10:15:42;10.10;99.90
59025;DHT22;44806;48.008;13.666;2024-03-02T10:18:10;10.20;99.90
59025;DHT22;44806;48.008;13.666;2024-03-02T10:20:38;10.20;99.90
59025;DHT22;44806;48.008;13.666;2024-03-02T10:23:14;10.30;99.90
59025;DHT22;44806;48.008;13.666;2024-03-02T10:25:42;10.30;99.90
59025;DHT22;44806;48.008;13.666;2024-03-02T10:28:09;10.30;99.90
59025;DHT22;44806;48.008;13.666;2024-03-02T10:30:37;10.30;99.90
59025;DHT22;44806;48.008;13.666;2024-03-02T10:33:05;10.30;99.90
59025;DHT22;44806;48.008;13.666;2024-03-02T10:35:33;10.30;99.90
59025;DHT22;44806;48.008;13.666;2024-03-02T10:38:04;10.30;99.90
59025;DHT22;44806;48.008;13.666;2024-03-02T10:40:32;10.30;99.90
59025;DHT22;44806;48.008;13.666;2024-03-02T10:43:01;10.30;99.90
59025;DHT22;44806;48.008;13.666;2024-03-02T10:45:29;10.40;99.90
59025;DHT22;44806;48.008;13.666;2024-03-02T10:47:57;10.50;99.90
59025;DHT22;44806;48.008;13.666;2024-03-02T10:50:24;10.50;99.90
59025;DHT22;44806;48.008;13.666;2024-03-02T10:52:51;10.60;99.90
59025;DHT22;44806;48.008;13.666;2024-03-02T10:55:18;10.80;99.90
59025;DHT22;44806;48.008;13.666;2024-03-02T10:57:51;10.90;99.90
59025;DHT22;44806;48.008;13.666;2024-03-02T11:00:19;11.00;99.90
59025;DHT22;44806;48.008;13.666;2024-03-02T11:02:55;11.00;99.90
59025;DHT22;44806;48.008;13.666;2024-03-02T11:05:27;11.10;99.90
59025;DHT22;44806;48.008;13.666;2024-03-02T11:07:59;11.10;99.90
59025;DHT22;44806;48.008;13.666;2024-03-02T11:10:32;11.20;99.90
59025;DHT22;44806;48.008;13.666;2024-03-02T11:13:04;11.40;99.90
59025;DHT22;44806;48.008;13.666;2024-03-02T11:15:34;11.40;99.90
59025;DHT22;44806;48.008;13.666;2024-03-02T11:18:04;11.40;99.90
59025;DHT22;44806;48.008;13.666;2024-03-02T11:20:36;11.50;99.90
59025;DHT22;44806;48.008;13.666;2024-03-02T11:23:05;11.50;99.90
59025;DHT22;44806;48.008;13.666;2024-03-02T11:25:33;11.60;99.90
59025;DHT22;44806;48.008;13.666;2024-03-02T11:28:03;11.70;99.90
59025;DHT22;44806;48.008;13.666;2024-03-02T11:30:49;11.80;99.90
59025;DHT22;44806;48.008;13.666;2024-03-02T11:33:23;11.80;99.90
59025;DHT22;44806;48.008;13.666;2024-03-02T11:35:53;11.70;99.90
59025;DHT22;44806;48.008;13.666;2024-03-02T11:38:20;11.80;99.90
59025;DHT22;44806;48.008;13.666;2024-03-02T11:40:47;11.80;99.90
59025;DHT22;44806;48.008;13.666;2024-03-02T11:43:15;11.60;99.90
59025;DHT22;44806;48.008;13.666;2024-03-02T11:45:43;11.70;99.90
59025;DHT22;44806;48.008;13.666;2024-03-02T11:48:13;11.80;99.90
59025;DHT22;44806;48.008;13.666;2024-03-02T11:50:42;11.70;99.90
59025;DHT22;44806;48.008;13.666;2024-03-02T11:53:10;11.80;99.90
59025;DHT22;44806;48.008;13.666;2024-03-02T11:55:39;12.00;99.90
59025;DHT22;44806;48.008;13.666;2024-03-02T11:58:07;12.00;99.90
59025;DHT22;44806;48.008;13.666;2024-03-02T12:00:36;12.10;99.90
59025;DHT22;44806;48.008;13.666;2024-03-02T12:03:04;12.20;99.90
59025;DHT22;44806;48.008;13.666;2024-03-02T12:05:33;12.20;99.90
59025;DHT22;44806;48.008;13.666;2024-03-02T12:08:02;12.20;99.90
59025;DHT22;44806;48.008;13.666;2024-03-02T12:10:30;12.20;99.90
59025;DHT22;44806;48.008;13.666;2024-03-02T12:12:57;12.20;99.90
59025;DHT22;44806;48.008;13.666;2024-03-02T12:15:25;12.30;99.90
59025;DHT22;44806;48.008;13.666;2024-03-02T12:17:55;12.30;99.90
59025;DHT22;44806;48.008;13.666;2024-03-02T12:20:23;12.40;99.90
59025;DHT22;44806;48.008;13.666;2024-03-02T12:22:51;12.40;99.90
59025;DHT22;44806;48.008;13.666;2024-03-02T12:25:19;12.40;99.90
59025;DHT22;44806;48.008;13.666;2024-03-02T12:27:47;12.30;99.90
59025;DHT22;44806;48.008;13.666;2024-03-02T12:30:16;12.30;99.90
59025;DHT22;44806;48.008;13.666;2024-03-02T12:32:44;12.20;99.90
59025;DHT22;44806;48.008;13.666;2024-03-02T12:35:12;12.20;99.90
59025;DHT22;44806;48.008;13.666;2024-03-02T12:37:45;12.30;99.90
59025;DHT22;44806;48.008;13.666;2024-03-02T12:40:12;12.40;99.90
59025;DHT22;44806;48.008;13.666;2024-03-02T12:42:39;12.40;99.90
59025;DHT22;44806;48.008;13.666;2024-03-02T12:45:08;12.50;99.90
59025;DHT22;44806;48.008;13.666;2024-03-02T12:47:35;12.60;99.90
59025;DHT22;44806;48.008;13.666;2024-03-02T12:50:04;12.60;99.90
59025;DHT22;44806;48.008;13.666;2024-03-02T12:52:32;12.60;99.90
59025;DHT22;44806;48.008;13.666;2024-03-02T12:55:01;12.70;99.90
59025;DHT22;44806;48.008;13.666;2024-03-02T12:57:30;12.70;99.90
59025;DHT22;44806;48.008;13.666;2024-03-02T12:59:58;12.70;99.90
59025;DHT22;44806;48.008;13.666;2024-03-02T13:02:28;12.70;99.90
59025;DHT22;44806;48.008;13.666;2024-03-02T13:04:55;12.60;99.90
59025;DHT22;44806;48.008;13.666;2024-03-02T13:07:23;12.50;99.90
59025;DHT22;44806;48.008;13.666;2024-03-02T13:09:51;12.60;99.90
59025;DHT22;44806;48.008;13.666;2024-03-02T13:12:21;12.60;99.90
59025;DHT22;44806;48.008;13.666;2024-03-02T13:14:49;12.60;99.90
59025;DHT22;44806;48.008;13.666;2024-03-02T13:17:17;12.60;99.90
59025;DHT22;44806;48.008;13.666;2024-03-02T13:19:51;12.60;99.90
59025;DHT22;44806;48.008;13.666;2024-03-02T13:22:19;12.60;99.90
59025;DHT22;44806;48.008;13.666;2024-03-02T13:24:46;12.50;99.90
59025;DHT22;44806;48.008;13.666;2024-03-02T13:27:15;12.50;99.90
59025;DHT22;44806;48.008;13.666;2024-03-02T13:29:45;12.60;99.90
59025;DHT22;44806;48.008;13.666;2024-03-02T13:32:13;12.60;99.90
59025;DHT22;44806;48.008;13.666;2024-03-02T13:34:40;12.70;99.90
59025;DHT22;44806;48.008;13.666;2024-03-02T13:37:07;12.70;99.90
59025;DHT22;44806;48.008;13.666;2024-03-02T13:39:34;12.60;99.90
59025;DHT22;44806;48.008;13.666;2024-03-02T13:42:06;12.50;99.90
59025;DHT22;44806;48.008;13.666;2024-03-02T13:44:35;12.60;99.90
59025;DHT22;44806;48.008;13.666;2024-03-02T13:47:04;12.60;99.90
59025;DHT22;44806;48.008;13.666;2024-03-02T13:49:31;12.70;99.90
59025;DHT22;44806;48.008;13.666;2024-03-02T13:52:03;12.70;99.90
59025;DHT22;44806;48.008;13.666;2024-03-02T13:54:39;12.70;99.90
59025;DHT22;44806;48.008;13.666;2024-03-02T13:57:08;12.70;99.90
59025;DHT22;44806;48.008;13.666;2024-03-02T13:59:37;12.70;99.90
59025;DHT22;44806;48.008;13.666;2024-03-02T14:02:05;12.60;99.90
59025;DHT22;44806;48.008;13.666;2024-03-02T14:04:33;12.50;99.90
59025;DHT22;44806;48.008;13.666;2024-03-02T14:07:01;12.50;99.90
59025;DHT22;44806;48.008;13.666;2024-03-02T14:09:28;12.50;99.90
59025;DHT22;44806;48.008;13.666;2024-03-02T14:11:56;12.60;99.90
59025;DHT22;44806;48.008;13.666;2024-03-02T14:14:23;12.60;99.90
59025;DHT22;44806;48.008;13.666;2024-03-02T14:16:52;12.60;99.90
59025;DHT22;44806;48.008;13.666;2024-03-02T14:19:19;12.60;99.90
59025;DHT22;44806;48.008;13.666;2024-03-02T14:21:47;12.50;99.90
59025;DHT22;44806;48.008;13.666;2024-03-02T14:24:14;12.60;99.90
59025;DHT22;44806;48.008;13.666;2024-03-02T14:26:41;12.50;99.90
59025;DHT22;44806;48.008;13.666;2024-03-02T14:29:08;12.40;99.90
59025;DHT22;44806;48.008;13.666;2024-03-02T14:31:35;12.50;99.90
59025;DHT22;44806;48.008;13.666;2024-03-02T14:34:03;12.50;99.90
59025;DHT22;44806;48.008;13.666;2024-03-02T14:36:30;12.60;99.90
59025;DHT22;44806;48.008;13.666;2024-03-02T14:38:57;12.50;99.90
59025;DHT22;44806;48.008;13.666;2024-03-02T14:41:24;12.40;99.90
59025;DHT22;44806;48.008;13.666;2024-03-02T14:43:51;12.40;99.90
59025;DHT22;44806;48.008;13.666;2024-03-02T14:46:19;12.40;99.90
59025;DHT22;44806;48.008;13.666;2024-03-02T14:48:46;12.50;99.90
59025;DHT22;44806;48.008;13.666;2024-03-02T14:51:14;12.40;99.90
59025;DHT22;44806;48.008;13.666;2024-03-02T14:53:41;12.40;99.90
59025;DHT22;44806;48.008;13.666;2024-03-02T14:56:09;12.50;99.90
59025;DHT22;44806;48.008;13.666;2024-03-02T14:58:38;12.50;99.90
59025;DHT22;44806;48.008;13.666;2024-03-02T15:01:05;12.50;99.90
59025;DHT22;44806;48.008;13.666;2024-03-02T15:03:32;12.50;99.90
59025;DHT22;44806;48.008;13.666;2024-03-02T15:06:00;12.60;99.90
59025;DHT22;44806;48.008;13.666;2024-03-02T15:08:28;12.60;99.90
59025;DHT22;44806;48.008;13.666;2024-03-02T15:10:55;12.70;99.90
59025;DHT22;44806;48.008;13.666;2024-03-02T15:13:23;12.80;99.90
59025;DHT22;44806;48.008;13.666;2024-03-02T15:15:52;12.60;99.90
59025;DHT22;44806;48.008;13.666;2024-03-02T15:18:19;12.50;99.90
59025;DHT22;44806;48.008;13.666;2024-03-02T15:20:46;12.40;99.90
59025;DHT22;44806;48.008;13.666;2024-03-02T15:23:13;12.40;99.90
59025;DHT22;44806;48.008;13.666;2024-03-02T15:25:41;12.40;99.90
59025;DHT22;44806;48.008;13.666;2024-03-02T15:28:08;12.40;99.90
59025;DHT22;44806;48.008;13.666;2024-03-02T15:30:35;12.50;99.90